sensor_id;sensor_type;location;lat;lon;timestamp;P1;durP1;ratioP1;P2;durP2;ratioP2
64487;SDS011;50864;45.050;39.014;2022-09-01T04:07:25;158.75;;;64.32;;
64487;SDS011;50864;45.050;39.014;2022-09-01T04:09:52;177.60;;;66.87;;
64487;SDS011;50864;45.050;39.014;2022-09-01T04:12:18;122.25;;;56.67;;
64487;SDS011;50864;45.050;39.014;2022-09-01T04:14:46;132.27;;;56.50;;
64487;SDS011;50864;45.050;39.014;2022-09-01T04:17:13;139.12;;;55.90;;
64487;SDS011;50864;45.050;39.014;2022-09-01T04:20:00;140.30;;;58.22;;
64487;SDS011;50864;45.050;39.014;2022-09-01T04:22:33;105.53;;;52.45;;
64487;SDS011;50864;45.050;39.014;2022-09-01T04:25:03;72.85;;;44.80;;
64487;SDS011;50864;45.050;39.014;2022-09-01T04:27:32;88.80;;;47.08;;
64487;SDS011;50864;45.050;39.014;2022-09-01T04:30:09;79.05;;;46.53;;
64487;SDS011;50864;45.050;39.014;2022-09-01T04:32:36;115.57;;;54.15;;
64487;SDS011;50864;45.050;39.014;2022-09-01T04:35:05;79.35;;;46.17;;
64487;SDS011;50864;45.050;39.014;2022-09-01T04:37:32;135.88;;;58.00;;
64487;SDS011;50864;45.050;39.014;2022-09-01T04:40:01;101.75;;;48.92;;
64487;SDS011;50864;45.050;39.014;2022-09-01T04:42:29;93.78;;;44.22;;
64487;SDS011;50864;45.050;39.014;2022-09-01T04:44:57;76.55;;;40.63;;
64487;SDS011;50864;45.050;39.014;2022-09-01T04:47:26;131.37;;;58.45;;
64487;SDS011;50864;45.050;39.014;2022-09-01T04:50:12;104.35;;;52.05;;
64487;SDS011;50864;45.050;39.014;2022-09-01T04:52:41;119.20;;;53.03;;
64487;SDS011;50864;45.050;39.014;2022-09-01T04:55:14;135.27;;;57.58;;
64487;SDS011;50864;45.050;39.014;2022-09-01T04:57:45;149.82;;;57.58;;
64487;SDS011;50864;45.050;39.014;2022-09-01T05:00:15;98.75;;;47.78;;
64487;SDS011;50864;45.050;39.014;2022-09-01T05:02:51;94.72;;;42.80;;
64487;SDS011;50864;45.050;39.014;2022-09-01T20:45:08;123.18;;;54.90;;
64487;SDS011;50864;45.050;39.014;2022-09-01T20:47:37;116.30;;;53.28;;
64487;SDS011;50864;45.050;39.014;2022-09-01T20:50:08;104.87;;;51.65;;
64487;SDS011;50864;45.050;39.014;2022-09-01T20:52:54;96.87;;;47.80;;
64487;SDS011;50864;45.050;39.014;2022-09-01T20:55:47;79.57;;;43.17;;
64487;SDS011;50864;45.050;39.014;2022-09-01T20:58:27;56.37;;;37.88;;
64487;SDS011;50864;45.050;39.014;2022-09-01T21:06:27;64.28;;;41.00;;
64487;SDS011;50864;45.050;39.014;2022-09-01T21:11:47;103.00;;;50.47;;
64487;SDS011;50864;45.050;39.014;2022-09-01T21:14:47;108.32;;;52.67;;
64487;SDS011;50864;45.050;39.014;2022-09-01T21:22:18;121.90;;;55.38;;
64487;SDS011;50864;45.050;39.014;2022-09-01T21:24:44;80.68;;;45.88;;
64487;SDS011;50864;45.050;39.014;2022-09-01T21:27:16;75.22;;;43.65;;
64487;SDS011;50864;45.050;39.014;2022-09-01T21:29:45;79.47;;;44.47;;
64487;SDS011;50864;45.050;39.014;2022-09-01T21:32:17;81.37;;;43.05;;
64487;SDS011;50864;45.050;39.014;2022-09-01T21:34:44;69.75;;;40.60;;
64487;SDS011;50864;45.050;39.014;2022-09-01T21:37:11;70.68;;;41.17;;
64487;SDS011;50864;45.050;39.014;2022-09-01T21:39:37;57.88;;;33.67;;
64487;SDS011;50864;45.050;39.014;2022-09-01T21:42:05;52.17;;;31.58;;
64487;SDS011;50864;45.050;39.014;2022-09-01T21:44:33;35.85;;;26.85;;
64487;SDS011;50864;45.050;39.014;2022-09-01T21:47:00;41.05;;;29.60;;
64487;SDS011;50864;45.050;39.014;2022-09-01T21:49:26;62.88;;;36.45;;
64487;SDS011;50864;45.050;39.014;2022-09-01T21:51:52;66.03;;;38.63;;
64487;SDS011;50864;45.050;39.014;2022-09-01T21:54:19;56.63;;;35.83;;
64487;SDS011;50864;45.050;39.014;2022-09-01T21:56:45;59.42;;;34.05;;
64487;SDS011;50864;45.050;39.014;2022-09-01T21:59:12;76.05;;;38.88;;
64487;SDS011;50864;45.050;39.014;2022-09-01T22:01:42;85.82;;;43.22;;
64487;SDS011;50864;45.050;39.014;2022-09-01T22:04:09;89.90;;;44.90;;
64487;SDS011;50864;45.050;39.014;2022-09-01T22:06:36;64.75;;;40.22;;
64487;SDS011;50864;45.050;39.014;2022-09-01T22:09:04;84.03;;;42.45;;
64487;SDS011;50864;45.050;39.014;2022-09-01T22:11:33;79.03;;;43.20;;
64487;SDS011;50864;45.050;39.014;2022-09-01T22:14:01;56.78;;;37.90;;
64487;SDS011;50864;45.050;39.014;2022-09-01T22:16:30;73.62;;;42.28;;
64487;SDS011;50864;45.050;39.014;2022-09-01T22:18:57;47.28;;;32.58;;
64487;SDS011;50864;45.050;39.014;2022-09-01T22:21:24;31.70;;;25.85;;
64487;SDS011;50864;45.050;39.014;2022-09-01T22:23:50;36.33;;;27.58;;
64487;SDS011;50864;45.050;39.014;2022-09-01T22:26:18;28.55;;;22.85;;
64487;SDS011;50864;45.050;39.014;2022-09-01T22:28:55;47.58;;;29.10;;
64487;SDS011;50864;45.050;39.014;2022-09-01T22:31:24;39.95;;;27.50;;
64487;SDS011;50864;45.050;39.014;2022-09-01T22:33:51;38.90;;;24.70;;
64487;SDS011;50864;45.050;39.014;2022-09-01T22:36:19;24.70;;;17.98;;
64487;SDS011;50864;45.050;39.014;2022-09-01T22:38:50;24.83;;;19.87;;
64487;SDS011;50864;45.050;39.014;2022-09-01T22:41:20;32.97;;;23.38;;
64487;SDS011;50864;45.050;39.014;2022-09-01T22:43:48;22.35;;;19.08;;
64487;SDS011;50864;45.050;39.014;2022-09-01T22:46:16;24.27;;;18.73;;
64487;SDS011;50864;45.050;39.014;2022-09-01T22:48:43;27.50;;;18.52;;
64487;SDS011;50864;45.050;39.014;2022-09-01T22:51:10;21.83;;;18.33;;
64487;SDS011;50864;45.050;39.014;2022-09-01T22:53:38;41.50;;;26.70;;
64487;SDS011;50864;45.050;39.014;2022-09-01T22:56:14;43.28;;;29.23;;
64487;SDS011;50864;45.050;39.014;2022-09-01T22:58:45;50.88;;;31.80;;
64487;SDS011;50864;45.050;39.014;2022-09-01T23:01:14;51.30;;;31.35;;
64487;SDS011;50864;45.050;39.014;2022-09-01T23:03:41;35.60;;;25.27;;
64487;SDS011;50864;45.050;39.014;2022-09-01T23:06:11;27.15;;;20.83;;
64487;SDS011;50864;45.050;39.014;2022-09-01T23:08:39;49.28;;;32.17;;
64487;SDS011;50864;45.050;39.014;2022-09-01T23:11:05;41.55;;;28.17;;
64487;SDS011;50864;45.050;39.014;2022-09-01T23:13:33;31.17;;;27.08;;
64487;SDS011;50864;45.050;39.014;2022-09-01T23:16:01;36.65;;;25.83;;
64487;SDS011;50864;45.050;39.014;2022-09-01T23:18:28;31.48;;;27.23;;
64487;SDS011;50864;45.050;39.014;2022-09-01T23:20:57;45.33;;;33.00;;
64487;SDS011;50864;45.050;39.014;2022-09-01T23:23:24;35.00;;;27.83;;
64487;SDS011;50864;45.050;39.014;2022-09-01T23:25:50;58.53;;;36.63;;
64487;SDS011;50864;45.050;39.014;2022-09-01T23:28:17;54.95;;;34.45;;
64487;SDS011;50864;45.050;39.014;2022-09-01T23:30:44;62.50;;;37.30;;
64487;SDS011;50864;45.050;39.014;2022-09-01T23:33:21;49.58;;;33.67;;
64487;SDS011;50864;45.050;39.014;2022-09-01T23:35:50;46.55;;;29.87;;
64487;SDS011;50864;45.050;39.014;2022-09-01T23:38:19;25.00;;;21.73;;
64487;SDS011;50864;45.050;39.014;2022-09-01T23:40:47;40.75;;;26.90;;
64487;SDS011;50864;45.050;39.014;2022-09-01T23:43:16;40.88;;;30.33;;
64487;SDS011;50864;45.050;39.014;2022-09-01T23:45:45;62.50;;;38.22;;
64487;SDS011;50864;45.050;39.014;2022-09-01T23:48:13;69.35;;;41.45;;
64487;SDS011;50864;45.050;39.014;2022-09-01T23:50:41;39.17;;;30.90;;
64487;SDS011;50864;45.050;39.014;2022-09-01T23:53:23;51.08;;;29.10;;
64487;SDS011;50864;45.050;39.014;2022-09-01T23:55:52;42.33;;;28.65;;
64487;SDS011;50864;45.050;39.014;2022-09-01T23:58:20;37.60;;;28.95;;
